createdAt,value
2022-12-25T00:01:33.487Z,95.24
2022-12-25T00:04:02.684Z,94.93
2022-12-25T00:11:52.843Z,94.96
2022-12-25T00:14:19.376Z,94.52
2022-12-25T00:16:45.998Z,94.99
2022-12-25T00:19:12.828Z,95.18
2022-12-25T00:21:39.872Z,94.95
2022-12-25T00:24:06.694Z,94.96
2022-12-25T00:26:33.651Z,94.91
2022-12-25T00:29:00.292Z,94.95
2022-12-25T00:31:27.525Z,94.74
2022-12-25T00:33:54.455Z,94.69
2022-12-25T00:36:22.555Z,94.51
2022-12-25T00:38:49.227Z,93.85
2022-12-25T00:41:38.755Z,93.51
2022-12-25T00:44:06.972Z,94.43
2022-12-25T00:46:33.494Z,94.08
2022-12-25T00:49:00.585Z,94.39
2022-12-25T00:51:27.131Z,93.65
2022-12-25T00:53:54.338Z,93.35
2022-12-25T00:56:21.114Z,93.86
2022-12-25T00:58:47.669Z,94.04
2022-12-25T01:01:14.625Z,94.00
2022-12-25T01:03:41.375Z,94.20
2022-12-25T01:06:10.867Z,93.45
2022-12-25T01:09:00.129Z,93.55
2022-12-25T01:11:27.695Z,93.45
2022-12-25T01:13:55.210Z,93.00
2022-12-25T01:16:22.829Z,92.48
2022-12-25T01:18:49.575Z,92.75
2022-12-25T01:21:18.290Z,92.41
2022-12-25T01:23:46.062Z,92.50
2022-12-25T01:26:15.696Z,91.87
2022-12-25T01:28:43.707Z,92.30
2022-12-25T01:31:15.720Z,91.57
2022-12-25T01:33:47.644Z,92.17
2022-12-25T01:36:17.879Z,92.22
2022-12-25T01:38:46.240Z,91.84
2022-12-25T01:41:15.508Z,91.95
2022-12-25T01:44:09.459Z,91.96
2022-12-25T01:46:37.856Z,91.97
2022-12-25T01:49:09.558Z,92.50
2022-12-25T01:51:57.446Z,92.81
2022-12-25T01:54:29.011Z,92.40
2022-12-25T01:56:59.994Z,92.75
2022-12-25T01:59:28.189Z,92.84
2022-12-25T02:01:56.663Z,92.55
2022-12-25T02:04:38.750Z,92.85
2022-12-25T02:07:18.504Z,92.54
2022-12-25T02:09:47.590Z,91.96
2022-12-25T02:12:24.847Z,91.85
2022-12-25T02:15:02.849Z,92.07
2022-12-25T02:17:46.363Z,92.08
2022-12-25T02:20:43.129Z,91.61
2022-12-25T02:23:31.765Z,91.65
2022-12-25T02:26:17.454Z,91.76
2022-12-25T02:29:19.722Z,91.76
2022-12-25T02:32:00.133Z,91.40
2022-12-25T02:35:01.836Z,91.23
2022-12-25T02:40:50.747Z,91.62
2022-12-25T02:43:50.063Z,91.27
2022-12-25T02:46:40.825Z,91.84
2022-12-25T02:49:36.164Z,90.63
2022-12-25T02:52:28.859Z,90.72
2022-12-25T02:55:26.776Z,91.63
2022-12-25T02:58:15.349Z,91.13
2022-12-25T03:01:06.852Z,91.54
2022-12-25T03:03:59.224Z,91.70
2022-12-25T03:06:43.576Z,91.64
2022-12-25T03:09:39.563Z,91.81
2022-12-25T03:12:37.541Z,92.06
2022-12-25T03:15:26.537Z,91.97
2022-12-25T03:17:55.498Z,91.96
2022-12-25T03:20:43.036Z,92.28
2022-12-25T03:23:32.057Z,91.89
2022-12-25T03:26:17.453Z,92.37
2022-12-25T03:28:44.116Z,92.09
2022-12-25T03:31:29.190Z,92.54
2022-12-25T03:34:49.471Z,92.01
2022-12-25T03:37:44.183Z,92.50
2022-12-25T03:40:57.534Z,93.10
2022-12-25T03:44:26.244Z,92.54
2022-12-25T03:47:20.536Z,92.54
2022-12-25T03:52:49.242Z,92.80
2022-12-25T03:55:37.772Z,92.46
2022-12-25T04:01:04.433Z,92.44
2022-12-25T04:03:50.220Z,92.24
2022-12-25T04:06:35.552Z,92.47
2022-12-25T04:09:21.025Z,92.39
2022-12-25T04:12:06.624Z,91.61
2022-12-25T04:14:51.952Z,90.94
2022-12-25T04:17:37.219Z,90.40
2022-12-25T04:20:22.430Z,90.55
2022-12-25T04:23:08.065Z,90.94
2022-12-25T04:25:53.548Z,91.66
2022-12-25T04:28:38.772Z,92.11
2022-12-25T04:31:24.600Z,91.60
2022-12-25T04:34:09.936Z,90.76
2022-12-25T04:36:36.709Z,90.74
2022-12-25T04:39:03.369Z,91.48
2022-12-25T04:41:30.087Z,91.12
2022-12-25T04:43:56.684Z,91.89
2022-12-25T04:46:23.322Z,91.93
2022-12-25T04:48:50.083Z,91.66
2022-12-25T04:51:19.366Z,90.48
2022-12-25T04:53:47.330Z,91.02
2022-12-25T04:56:14.606Z,91.11
2022-12-25T04:58:42.101Z,90.64
2022-12-25T05:01:09.523Z,90.77
2022-12-25T05:06:27.609Z,90.13
2022-12-25T05:08:54.075Z,90.44
2022-12-25T05:11:21.726Z,90.21
2022-12-25T05:13:49.182Z,90.96
2022-12-25T05:16:18.421Z,90.92
2022-12-25T05:18:45.235Z,91.71
2022-12-25T05:21:12.266Z,92.12
2022-12-25T05:23:38.955Z,91.95
2022-12-25T05:26:09.855Z,91.72
2022-12-25T05:28:37.455Z,91.86
2022-12-25T05:31:04.132Z,91.08
2022-12-25T05:33:30.980Z,90.42
2022-12-25T05:35:57.329Z,90.40
2022-12-25T05:38:24.002Z,90.62
2022-12-25T05:40:51.797Z,90.69
2022-12-25T05:43:19.458Z,90.86
2022-12-25T05:45:46.284Z,91.69
2022-12-25T05:48:13.132Z,92.14
2022-12-25T05:50:39.649Z,91.93
2022-12-25T05:53:09.014Z,90.91
2022-12-25T05:55:38.033Z,90.99
2022-12-25T05:58:06.428Z,90.84
2022-12-25T06:00:34.589Z,90.76
2022-12-25T06:03:01.505Z,90.36
2022-12-25T06:05:28.247Z,90.91
2022-12-25T06:07:55.035Z,90.27
2022-12-25T06:10:21.612Z,90.58
2022-12-25T06:12:49.037Z,90.92
2022-12-25T06:15:15.661Z,90.11
2022-12-25T06:17:42.728Z,90.47
2022-12-25T06:20:09.678Z,90.02
2022-12-25T06:22:36.950Z,90.41
2022-12-25T06:25:03.823Z,90.32
2022-12-25T06:27:30.771Z,90.80
2022-12-25T06:29:57.476Z,90.50
2022-12-25T06:32:23.986Z,90.04
2022-12-25T06:34:50.808Z,89.84
2022-12-25T06:37:17.235Z,90.56
2022-12-25T06:39:43.790Z,90.56
2022-12-25T06:42:10.639Z,90.82
2022-12-25T06:44:37.925Z,90.67
2022-12-25T06:47:04.881Z,90.57
2022-12-25T06:49:31.559Z,90.76
2022-12-25T06:51:58.252Z,90.40
2022-12-25T06:54:24.663Z,89.94
2022-12-25T06:56:51.213Z,90.37
2022-12-25T06:59:20.042Z,90.68
2022-12-25T07:01:53.428Z,90.97
2022-12-25T07:04:37.938Z,90.79
2022-12-25T07:07:09.229Z,90.69
2022-12-25T07:09:38.599Z,90.93
2022-12-25T07:12:16.118Z,90.59
2022-12-25T07:14:43.918Z,90.48
2022-12-25T07:17:10.501Z,90.68
2022-12-25T07:19:42.677Z,90.42
2022-12-25T07:22:11.254Z,89.60
2022-12-25T07:24:38.041Z,89.86
2022-12-25T07:27:04.735Z,89.72
2022-12-25T07:29:32.171Z,89.92
2022-12-25T07:32:02.079Z,90.03
2022-12-25T07:34:28.823Z,89.82
2022-12-25T07:36:55.323Z,89.97
2022-12-25T07:39:23.552Z,89.32
2022-12-25T07:41:50.961Z,89.50
2022-12-25T07:44:17.537Z,89.43
2022-12-25T07:46:44.402Z,89.14
2022-12-25T07:49:11.930Z,88.94
2022-12-25T07:51:39.615Z,89.47
2022-12-25T07:54:06.579Z,89.42
2022-12-25T07:56:33.019Z,89.46
2022-12-25T07:58:59.496Z,89.12
2022-12-25T08:01:27.665Z,88.58
2022-12-25T08:03:56.982Z,88.92
2022-12-25T08:09:12.768Z,88.94
2022-12-25T08:11:44.028Z,88.70
2022-12-25T08:14:10.721Z,88.14
2022-12-25T08:16:41.451Z,88.42
2022-12-25T08:19:09.047Z,88.68
2022-12-25T08:21:35.692Z,88.58
2022-12-25T08:24:03.330Z,88.69
2022-12-25T08:26:30.503Z,88.81
2022-12-25T08:28:57.147Z,88.37
2022-12-25T08:31:29.474Z,88.43
2022-12-25T08:33:58.084Z,88.17
2022-12-25T08:36:25.278Z,88.07
2022-12-25T08:38:55.715Z,87.01
2022-12-25T08:41:27.773Z,87.81
2022-12-25T08:43:54.599Z,88.20
2022-12-25T08:46:21.312Z,88.22
2022-12-25T08:48:49.896Z,87.75
2022-12-25T08:51:19.998Z,88.36
2022-12-25T08:53:48.638Z,88.38
2022-12-25T08:56:18.221Z,88.23
2022-12-25T08:58:45.836Z,88.78
2022-12-25T09:01:14.304Z,88.37
2022-12-25T09:03:41.325Z,88.32
2022-12-25T09:06:15.015Z,88.53
2022-12-25T09:08:48.767Z,89.00
2022-12-25T09:11:21.714Z,88.29
2022-12-25T09:13:49.166Z,88.67
2022-12-25T09:16:18.840Z,89.00
2022-12-25T09:18:46.142Z,88.81
2022-12-25T09:21:14.361Z,89.52
2022-12-25T09:23:42.696Z,88.96
2022-12-25T09:26:13.930Z,89.64
2022-12-25T09:28:45.144Z,89.56
2022-12-25T09:31:15.447Z,89.91
2022-12-25T09:33:41.881Z,90.42
2022-12-25T09:36:08.994Z,90.48
2022-12-25T09:38:36.439Z,90.66
2022-12-25T09:41:31.817Z,91.22
2022-12-25T09:44:44.686Z,91.01
2022-12-25T09:47:15.864Z,91.00
2022-12-25T09:49:52.339Z,90.38
2022-12-25T09:52:23.422Z,89.76
2022-12-25T09:54:59.747Z,88.87
2022-12-25T09:57:26.589Z,89.29
2022-12-25T09:59:56.693Z,89.33
2022-12-25T10:02:32.474Z,89.32
2022-12-25T10:05:21.426Z,89.26
2022-12-25T10:08:12.812Z,89.62
2022-12-25T10:10:57.457Z,89.06
2022-12-25T10:13:36.943Z,89.57
2022-12-25T10:16:48.310Z,88.79
2022-12-25T10:19:34.954Z,88.19
2022-12-25T10:22:09.364Z,87.97
2022-12-25T10:24:42.559Z,88.29
2022-12-25T10:27:46.603Z,88.72
2022-12-25T10:30:19.454Z,88.59
2022-12-25T10:32:47.908Z,88.48
2022-12-25T10:35:18.512Z,88.54
2022-12-25T10:37:48.749Z,89.01
2022-12-25T10:40:35.384Z,89.67
2022-12-25T10:43:11.573Z,88.56
2022-12-25T10:45:49.512Z,88.30
2022-12-25T10:48:26.181Z,88.46
2022-12-25T10:50:52.949Z,89.14
2022-12-25T10:53:24.096Z,89.45
2022-12-25T10:56:16.775Z,89.78
2022-12-25T10:58:44.287Z,89.40
2022-12-25T11:01:12.052Z,89.27
2022-12-25T11:03:41.808Z,88.96
2022-12-25T11:06:25.332Z,89.23
2022-12-25T11:08:58.352Z,88.73
2022-12-25T11:11:26.090Z,88.57
2022-12-25T11:13:56.214Z,88.64
2022-12-25T11:16:28.042Z,87.90
2022-12-25T11:18:56.311Z,87.32
2022-12-25T11:21:34.282Z,87.14
2022-12-25T11:24:19.435Z,86.46
2022-12-25T11:26:47.772Z,86.92
2022-12-25T11:29:46.567Z,87.26
2022-12-25T11:32:25.018Z,86.09
2022-12-25T11:34:53.382Z,86.61
2022-12-25T11:37:48.304Z,85.59
2022-12-25T11:40:18.047Z,84.81
2022-12-25T11:42:50.579Z,84.67
2022-12-25T11:45:26.076Z,85.06
2022-12-25T11:47:57.193Z,84.96
2022-12-25T11:50:35.566Z,84.61
2022-12-25T11:53:06.786Z,84.29
2022-12-25T11:55:47.097Z,84.76
2022-12-25T11:58:33.243Z,85.43
2022-12-25T12:01:04.064Z,85.61
2022-12-25T12:03:35.902Z,84.84
2022-12-25T12:06:51.743Z,85.09
2022-12-25T12:09:24.610Z,83.97
2022-12-25T12:12:15.486Z,84.51
2022-12-25T12:15:04.300Z,84.60
2022-12-25T12:17:31.922Z,84.25
2022-12-25T12:19:58.875Z,85.55
2022-12-25T12:22:28.102Z,85.29
2022-12-25T12:25:05.742Z,84.70
2022-12-25T12:27:37.551Z,84.50
2022-12-25T12:30:07.353Z,84.52
2022-12-25T12:32:40.625Z,83.92
2022-12-25T12:35:18.612Z,84.78
2022-12-25T12:37:53.262Z,85.32
2022-12-25T12:40:36.722Z,85.36
2022-12-25T12:43:05.925Z,84.69
2022-12-25T12:45:36.475Z,84.65
2022-12-25T12:48:15.495Z,84.92
2022-12-25T12:50:42.892Z,85.44
2022-12-25T12:53:30.930Z,85.03
2022-12-25T12:56:09.644Z,85.30
2022-12-25T12:58:39.641Z,85.80
2022-12-25T13:01:36.627Z,85.74
2022-12-25T13:04:14.914Z,85.81
2022-12-25T13:06:47.136Z,84.83
2022-12-25T13:09:44.769Z,85.04
2022-12-25T13:12:14.887Z,85.56
2022-12-25T13:14:46.950Z,85.00
2022-12-25T13:17:25.619Z,85.50
2022-12-25T13:19:56.122Z,85.20
2022-12-25T13:22:36.657Z,84.82
2022-12-25T13:25:07.636Z,84.02
2022-12-25T13:27:34.680Z,84.39
2022-12-25T13:30:12.443Z,85.36
2022-12-25T13:32:39.515Z,85.03
2022-12-25T13:35:12.510Z,85.59
2022-12-25T13:37:39.316Z,85.20
2022-12-25T13:40:08.438Z,85.70
2022-12-25T13:42:37.650Z,85.00
2022-12-25T13:45:14.335Z,85.26
2022-12-25T13:47:43.336Z,85.27
2022-12-25T13:50:30.203Z,84.56
2022-12-25T13:53:10.509Z,85.42
2022-12-25T13:55:37.949Z,84.47
2022-12-25T13:58:06.223Z,85.02
2022-12-25T14:00:48.839Z,85.93
2022-12-25T14:03:28.689Z,85.03
2022-12-25T14:06:00.614Z,85.04
2022-12-25T14:08:31.956Z,85.26
2022-12-25T14:11:03.657Z,86.14
2022-12-25T14:13:32.497Z,85.29
2022-12-25T14:15:59.895Z,84.25
2022-12-25T14:18:27.173Z,85.14
2022-12-25T14:21:06.264Z,85.84
2022-12-25T14:23:50.801Z,85.06
2022-12-25T14:26:19.874Z,83.68
2022-12-25T14:28:53.522Z,83.77
2022-12-25T14:31:21.484Z,85.15
2022-12-25T14:33:48.951Z,84.17
2022-12-25T14:36:15.757Z,84.85
2022-12-25T14:38:43.971Z,86.45
2022-12-25T14:41:33.523Z,84.85
2022-12-25T14:44:02.954Z,84.75
2022-12-25T14:46:32.627Z,84.45
2022-12-25T14:49:22.771Z,84.42
2022-12-25T14:51:50.038Z,84.01
2022-12-25T14:54:21.550Z,84.57
2022-12-25T14:56:53.826Z,84.03
2022-12-25T14:59:24.763Z,83.45
2022-12-25T15:01:58.564Z,83.76
2022-12-25T15:04:27.215Z,83.39
2022-12-25T15:07:07.014Z,84.27
2022-12-25T15:09:33.910Z,83.00
2022-12-25T15:12:00.358Z,82.16
2022-12-25T15:14:27.587Z,82.00
2022-12-25T15:17:00.705Z,82.98
2022-12-25T15:19:38.067Z,84.09
2022-12-25T15:22:05.626Z,82.54
2022-12-25T15:24:32.309Z,82.41
2022-12-25T15:27:00.497Z,82.98
2022-12-25T15:30:00.145Z,82.03
2022-12-25T15:32:20.265Z,82.68
2022-12-25T15:34:49.653Z,82.95
2022-12-25T15:37:17.488Z,82.69
2022-12-25T15:39:44.519Z,82.38
2022-12-25T15:42:15.277Z,81.88
2022-12-25T15:44:42.543Z,81.65
2022-12-25T15:47:11.117Z,82.25
2022-12-25T15:49:37.742Z,81.62
2022-12-25T15:52:12.512Z,82.46
2022-12-25T15:54:39.589Z,82.05
2022-12-25T15:57:13.972Z,80.89
2022-12-25T15:59:40.562Z,81.31
2022-12-25T16:02:14.927Z,81.44
2022-12-25T16:04:42.640Z,81.65
2022-12-25T16:07:15.379Z,81.45
2022-12-25T16:09:42.281Z,81.13
2022-12-25T16:12:09.785Z,81.12
2022-12-25T16:14:36.583Z,82.02
2022-12-25T16:17:04.377Z,81.06
2022-12-25T16:19:30.968Z,81.58
2022-12-25T16:21:57.416Z,81.12
2022-12-25T16:24:25.042Z,81.86
2022-12-25T16:26:51.417Z,81.73
2022-12-25T16:29:18.111Z,81.11
2022-12-25T16:31:44.678Z,81.59
2022-12-25T16:34:11.166Z,81.16
2022-12-25T16:36:37.765Z,81.83
2022-12-25T16:39:04.745Z,81.78
2022-12-25T16:41:31.277Z,81.26
2022-12-25T16:43:58.173Z,81.13
2022-12-25T16:46:25.049Z,81.70
2022-12-25T16:48:51.585Z,81.30
2022-12-25T16:51:20.794Z,81.70
2022-12-25T16:53:48.583Z,81.26
2022-12-25T16:56:20.542Z,81.64
2022-12-25T16:58:47.789Z,80.98
2022-12-25T17:01:18.515Z,79.57
2022-12-25T17:03:47.205Z,81.00
2022-12-25T17:06:14.913Z,81.30
2022-12-25T17:08:42.427Z,81.67
2022-12-25T17:11:09.292Z,81.90
2022-12-25T17:13:36.192Z,81.24
2022-12-25T17:16:21.254Z,80.87
2022-12-25T17:18:52.768Z,81.35
2022-12-25T17:21:19.297Z,81.16
2022-12-25T17:23:46.096Z,80.72
2022-12-25T17:26:12.895Z,81.37
2022-12-25T17:28:40.226Z,81.00
2022-12-25T17:31:09.105Z,80.70
2022-12-25T17:33:37.022Z,80.57
2022-12-25T17:36:05.763Z,80.77
2022-12-25T17:38:33.127Z,80.18
2022-12-25T17:41:02.243Z,80.90
2022-12-25T17:43:28.980Z,79.03
2022-12-25T17:45:55.556Z,79.57
2022-12-25T17:48:22.114Z,80.07
2022-12-25T17:50:49.225Z,79.90
2022-12-25T17:53:15.757Z,79.13
2022-12-25T17:55:43.406Z,79.50
2022-12-25T17:58:10.334Z,79.91
2022-12-25T18:00:37.463Z,78.26
2022-12-25T18:03:11.216Z,78.98
2022-12-25T18:05:38.473Z,79.50
2022-12-25T18:08:05.336Z,78.06
2022-12-25T18:10:36.521Z,79.07
2022-12-25T18:13:03.505Z,79.02
2022-12-25T18:15:30.181Z,79.23
2022-12-25T18:17:57.169Z,79.49
2022-12-25T18:20:23.755Z,79.30
2022-12-25T18:22:50.279Z,79.51
2022-12-25T18:25:16.746Z,79.15
2022-12-25T18:27:43.579Z,78.20
2022-12-25T18:30:10.604Z,78.90
2022-12-25T18:32:38.607Z,77.89
2022-12-25T18:35:05.625Z,79.29
2022-12-25T18:37:37.777Z,79.85
2022-12-25T18:40:07.345Z,79.54
2022-12-25T18:42:39.970Z,78.88
2022-12-25T18:45:09.788Z,78.91
2022-12-25T18:47:36.435Z,78.83
2022-12-25T18:50:04.142Z,80.51
2022-12-25T18:52:49.554Z,80.00
2022-12-25T18:55:17.935Z,78.74
2022-12-25T18:57:44.531Z,80.87
2022-12-25T19:00:11.941Z,81.12
2022-12-25T19:02:39.712Z,81.32
2022-12-25T19:05:06.619Z,80.37
2022-12-25T19:07:34.174Z,81.14
2022-12-25T19:10:00.676Z,79.36
2022-12-25T19:12:27.121Z,80.25
2022-12-25T19:14:53.593Z,80.45
2022-12-25T19:17:20.147Z,79.73
2022-12-25T19:19:47.017Z,80.74
2022-12-25T19:22:13.939Z,80.83
2022-12-25T19:24:40.472Z,79.77
2022-12-25T19:27:07.149Z,80.26
2022-12-25T19:29:34.188Z,79.34
2022-12-25T19:32:00.808Z,79.48
2022-12-25T19:34:27.456Z,79.40
2022-12-25T19:36:54.057Z,79.93
2022-12-25T19:39:20.634Z,79.54
2022-12-25T19:41:47.796Z,82.11
2022-12-25T19:44:15.032Z,80.54
2022-12-25T19:46:41.767Z,81.34
2022-12-25T19:49:13.424Z,80.88
2022-12-25T19:51:42.603Z,81.02
2022-12-25T19:54:17.189Z,81.57
2022-12-25T19:56:44.572Z,80.67
2022-12-25T19:59:12.270Z,79.11
2022-12-25T20:01:39.311Z,80.22
2022-12-25T20:04:08.641Z,79.81
2022-12-25T20:06:38.110Z,80.05
2022-12-25T20:09:08.922Z,78.94
2022-12-25T20:11:36.663Z,78.72
2022-12-25T20:14:04.168Z,78.21
2022-12-25T20:16:30.910Z,80.88
2022-12-25T20:18:57.745Z,81.48
2022-12-25T20:21:26.685Z,80.20
2022-12-25T20:23:54.118Z,80.81
2022-12-25T20:26:23.234Z,81.28
2022-12-25T20:28:50.409Z,82.08
2022-12-25T20:31:20.231Z,81.06
2022-12-25T20:33:47.477Z,81.69
2022-12-25T20:36:15.116Z,82.90
2022-12-25T20:38:41.972Z,81.67
2022-12-25T20:41:28.741Z,82.31
2022-12-25T20:43:56.384Z,82.35
2022-12-25T20:46:23.828Z,79.77
2022-12-25T20:48:51.810Z,80.12
2022-12-25T20:51:21.824Z,80.61
2022-12-25T20:53:48.960Z,82.44
2022-12-25T20:56:17.471Z,83.54
2022-12-25T20:58:44.705Z,83.56
2022-12-25T21:01:14.478Z,83.96
2022-12-25T21:03:41.848Z,82.99
2022-12-25T21:06:09.738Z,84.11
2022-12-25T21:08:37.511Z,85.01
2022-12-25T21:11:05.428Z,84.63
2022-12-25T21:13:35.046Z,85.03
2022-12-25T21:16:06.853Z,85.79
2022-12-25T21:18:33.959Z,84.80
2022-12-25T21:21:04.671Z,84.21
2022-12-25T21:23:32.471Z,84.59
2022-12-25T21:26:00.020Z,83.85
2022-12-25T21:28:29.481Z,83.76
2022-12-25T21:31:04.176Z,82.13
2022-12-25T21:33:49.127Z,82.23
2022-12-25T21:36:16.899Z,83.15
2022-12-25T21:38:45.292Z,80.15
2022-12-25T21:41:14.553Z,81.10
2022-12-25T21:43:42.882Z,80.39
2022-12-25T21:46:12.324Z,80.44
2022-12-25T21:48:40.113Z,81.96
2022-12-25T21:51:33.388Z,81.10
2022-12-25T21:54:00.957Z,80.59
2022-12-25T21:56:32.277Z,81.51
2022-12-25T21:59:00.994Z,82.19
2022-12-25T22:01:28.858Z,82.14
2022-12-25T22:03:57.309Z,81.42
2022-12-25T22:06:42.655Z,79.73
2022-12-25T22:09:09.235Z,80.59
2022-12-25T22:11:54.372Z,81.44
2022-12-25T22:14:52.904Z,82.38
2022-12-25T22:17:56.440Z,82.34
2022-12-25T22:20:30.001Z,82.47
2022-12-25T22:22:58.038Z,81.74
2022-12-25T22:25:25.040Z,79.31
2022-12-25T22:27:52.621Z,79.49
2022-12-25T22:30:22.853Z,79.86
2022-12-25T22:32:50.500Z,77.62
2022-12-25T22:35:17.411Z,78.19
2022-12-25T22:37:44.098Z,78.69
2022-12-25T22:40:13.913Z,79.61
2022-12-25T22:42:41.078Z,78.42
2022-12-25T22:45:08.640Z,77.72
2022-12-25T22:47:36.242Z,78.76
2022-12-25T22:50:02.933Z,77.74
2022-12-25T22:52:30.191Z,78.49
2022-12-25T22:54:56.939Z,77.40
2022-12-25T22:57:23.741Z,75.85
2022-12-25T22:59:52.549Z,76.62
2022-12-25T23:02:19.453Z,77.06
2022-12-25T23:04:47.691Z,77.22
2022-12-25T23:07:15.496Z,76.98
2022-12-25T23:09:43.324Z,77.28
2022-12-25T23:12:33.239Z,77.91
2022-12-25T23:14:59.645Z,76.61
2022-12-25T23:17:44.961Z,77.33
2022-12-25T23:20:33.339Z,77.50
2022-12-25T23:23:18.436Z,77.66
2022-12-25T23:26:03.773Z,77.43
2022-12-25T23:28:49.114Z,77.76
2022-12-25T23:31:15.893Z,79.08
2022-12-25T23:33:43.367Z,78.64
2022-12-25T23:36:09.904Z,79.12
2022-12-25T23:38:36.453Z,79.27
2022-12-25T23:41:02.917Z,79.38
2022-12-25T23:43:29.522Z,79.88
2022-12-25T23:45:55.966Z,78.14
2022-12-25T23:48:22.744Z,77.18
2022-12-25T23:50:49.211Z,78.85
2022-12-25T23:53:16.280Z,78.68
2022-12-25T23:55:43.365Z,77.84
2022-12-25T23:58:10.200Z,78.27
